createdAt,value
2018-12-27T00:01:47.023Z,5.70
2018-12-27T00:04:16.082Z,5.70
2018-12-27T00:06:45.133Z,5.70
2018-12-27T00:09:14.349Z,5.70
2018-12-27T00:11:43.497Z,5.70
2018-12-27T00:14:12.864Z,5.70
2018-12-27T00:16:42.035Z,5.70
2018-12-27T00:19:11.259Z,5.70
2018-12-27T00:21:40.245Z,5.70
2018-12-27T00:24:09.235Z,5.70
2018-12-27T00:26:38.679Z,5.70
2018-12-27T00:29:07.777Z,5.70
2018-12-27T00:31:37.035Z,5.70
2018-12-27T00:34:06.311Z,5.70
2018-12-27T00:36:35.629Z,5.70
2018-12-27T00:39:05.541Z,5.70
2018-12-27T00:41:35.066Z,5.70
2018-12-27T00:44:04.191Z,5.70
2018-12-27T00:46:33.469Z,5.70
2018-12-27T00:49:02.539Z,5.70
2018-12-27T00:51:32.360Z,5.60
2018-12-27T00:54:01.536Z,5.60
2018-12-27T00:56:30.600Z,5.60
2018-12-27T00:58:59.865Z,5.60
2018-12-27T01:01:29.027Z,5.60
2018-12-27T01:03:58.056Z,5.60
2018-12-27T01:06:27.190Z,5.60
2018-12-27T01:08:56.474Z,5.60
2018-12-27T01:11:26.240Z,5.60
2018-12-27T01:13:55.288Z,5.70
2018-12-27T01:16:24.331Z,5.60
2018-12-27T01:18:53.430Z,5.60
2018-12-27T01:21:22.600Z,5.60
2018-12-27T01:23:51.633Z,5.60
2018-12-27T01:26:20.774Z,5.70
2018-12-27T01:28:49.952Z,5.60
2018-12-27T01:31:19.112Z,5.70
2018-12-27T01:33:48.219Z,5.70
2018-12-27T01:36:17.376Z,5.70
2018-12-27T01:38:46.493Z,5.70
2018-12-27T01:41:15.544Z,5.60
2018-12-27T01:43:44.644Z,5.60
2018-12-27T01:46:13.983Z,5.60
2018-12-27T01:48:43.078Z,5.60
2018-12-27T01:51:12.157Z,5.70
2018-12-27T01:53:41.352Z,5.60
2018-12-27T01:56:10.556Z,5.60
2018-12-27T01:58:39.586Z,5.60
2018-12-27T02:01:08.712Z,5.60
2018-12-27T02:03:37.706Z,5.60
2018-12-27T02:06:07.294Z,5.70
2018-12-27T02:08:36.358Z,5.70
2018-12-27T02:11:05.564Z,5.60
2018-12-27T02:13:34.598Z,5.60
2018-12-27T02:16:03.727Z,5.60
2018-12-27T02:18:33.054Z,5.60
2018-12-27T02:21:02.190Z,5.60
2018-12-27T02:23:31.244Z,5.60
2018-12-27T02:26:00.418Z,5.60
2018-12-27T02:28:29.611Z,5.60
2018-12-27T02:30:58.792Z,5.60
2018-12-27T02:33:35.038Z,5.60
2018-12-27T02:35:58.747Z,5.60
2018-12-27T02:38:27.809Z,5.60
2018-12-27T02:40:56.860Z,5.60
2018-12-27T02:43:25.982Z,5.60
2018-12-27T02:45:55.767Z,5.60
2018-12-27T02:48:24.961Z,5.50
2018-12-27T02:50:54.284Z,5.50
2018-12-27T02:53:23.314Z,5.50
2018-12-27T02:55:52.378Z,5.50
2018-12-27T02:58:21.492Z,5.50
2018-12-27T03:00:50.717Z,5.60
2018-12-27T03:03:19.783Z,5.50
2018-12-27T03:05:48.821Z,5.50
2018-12-27T03:08:17.933Z,5.50
2018-12-27T03:10:47.049Z,5.50
2018-12-27T03:13:18.746Z,5.50
2018-12-27T03:15:47.884Z,5.50
2018-12-27T03:18:17.031Z,5.50
2018-12-27T03:20:46.096Z,5.50
2018-12-27T03:23:15.321Z,5.50
2018-12-27T03:25:44.303Z,5.50
2018-12-27T03:28:13.311Z,5.50
2018-12-27T03:30:42.342Z,5.50
2018-12-27T03:33:11.537Z,5.40
2018-12-27T03:35:40.604Z,5.50
2018-12-27T03:38:09.833Z,5.50
2018-12-27T03:40:38.895Z,5.50
2018-12-27T03:43:07.989Z,5.50
2018-12-27T03:45:37.094Z,5.50
2018-12-27T03:48:06.137Z,5.50
2018-12-27T03:50:35.180Z,5.50
2018-12-27T03:53:04.245Z,5.50
2018-12-27T03:55:33.339Z,5.50
2018-12-27T03:58:02.494Z,5.50
2018-12-27T04:00:31.569Z,5.40
2018-12-27T04:03:00.683Z,5.40
2018-12-27T04:05:30.263Z,5.40
2018-12-27T04:07:59.836Z,5.40
2018-12-27T04:10:28.864Z,5.40
2018-12-27T04:12:57.965Z,5.40
2018-12-27T04:15:26.931Z,5.40
2018-12-27T04:17:55.974Z,5.40
2018-12-27T04:20:24.990Z,5.40
2018-12-27T04:22:54.060Z,5.40
2018-12-27T04:25:24.209Z,5.40
2018-12-27T04:27:53.239Z,5.40
2018-12-27T04:30:22.306Z,5.40
2018-12-27T04:32:51.851Z,5.30
2018-12-27T04:35:20.984Z,5.30
2018-12-27T04:37:49.896Z,5.30
2018-12-27T04:40:18.794Z,5.30
2018-12-27T04:42:47.869Z,5.30
2018-12-27T04:45:16.770Z,5.30
2018-12-27T04:47:45.667Z,5.30
2018-12-27T04:50:14.652Z,5.30
2018-12-27T04:52:43.558Z,5.30
2018-12-27T04:55:12.938Z,5.30
2018-12-27T04:57:41.822Z,5.30
2018-12-27T05:00:10.860Z,5.30
2018-12-27T05:02:39.821Z,5.30
2018-12-27T05:05:09.009Z,5.30
2018-12-27T05:07:38.105Z,5.30
2018-12-27T05:10:07.030Z,5.30
2018-12-27T05:12:36.020Z,5.30
2018-12-27T05:15:05.221Z,5.20
2018-12-27T05:17:34.217Z,5.20
2018-12-27T05:20:03.268Z,5.20
2018-12-27T05:22:32.216Z,5.10
2018-12-27T05:25:01.169Z,5.10
2018-12-27T05:27:30.190Z,5.10
2018-12-27T05:29:59.385Z,5.10
2018-12-27T05:32:28.312Z,5.10
2018-12-27T05:34:57.916Z,5.10
2018-12-27T05:37:26.883Z,5.10
2018-12-27T05:39:56.042Z,5.10
2018-12-27T05:42:24.966Z,5.10
2018-12-27T05:44:53.958Z,5.10
2018-12-27T05:47:22.868Z,5.10
2018-12-27T05:49:52.046Z,5.00
2018-12-27T05:52:21.103Z,5.00
2018-12-27T05:54:50.114Z,5.00
2018-12-27T05:57:19.132Z,5.00
2018-12-27T05:59:48.116Z,5.00
2018-12-27T06:02:17.148Z,4.90
2018-12-27T06:04:46.138Z,4.90
2018-12-27T06:07:15.093Z,4.90
2018-12-27T06:09:44.294Z,4.90
2018-12-27T06:12:13.516Z,4.90
2018-12-27T06:14:42.472Z,4.90
2018-12-27T06:17:11.674Z,4.80
2018-12-27T06:19:40.658Z,4.90
2018-12-27T06:22:09.593Z,4.80
2018-12-27T06:24:38.650Z,4.70
2018-12-27T06:27:07.675Z,4.70
2018-12-27T06:29:36.685Z,4.70
2018-12-27T06:32:07.833Z,4.60
2018-12-27T06:34:41.319Z,4.60
2018-12-27T06:37:07.451Z,4.50
2018-12-27T06:39:36.502Z,4.50
2018-12-27T06:42:05.384Z,4.40
2018-12-27T06:44:34.321Z,4.30
2018-12-27T06:47:04.081Z,4.20
2018-12-27T06:49:33.113Z,4.20
2018-12-27T06:52:02.040Z,4.10
2018-12-27T06:54:30.935Z,4.10
2018-12-27T06:56:59.911Z,4.00
2018-12-27T06:59:28.881Z,3.90
2018-12-27T07:01:57.915Z,3.90
2018-12-27T07:04:26.881Z,3.90
2018-12-27T07:06:56.027Z,3.80
2018-12-27T07:09:24.923Z,3.80
2018-12-27T07:11:53.913Z,3.80
2018-12-27T07:14:22.983Z,3.80
2018-12-27T07:16:51.953Z,3.80
2018-12-27T07:19:20.944Z,3.80
2018-12-27T07:21:49.939Z,3.80
2018-12-27T07:24:18.851Z,3.80
2018-12-27T07:26:47.759Z,3.80
2018-12-27T07:29:16.690Z,3.70
2018-12-27T07:31:45.645Z,3.70
2018-12-27T07:34:14.538Z,3.60
2018-12-27T07:36:43.649Z,3.60
2018-12-27T07:39:12.768Z,3.60
2018-12-27T07:41:42.171Z,3.60
2018-12-27T07:44:11.207Z,3.50
2018-12-27T07:46:40.442Z,3.50
2018-12-27T07:49:28.512Z,3.50
2018-12-27T07:52:16.536Z,3.50
2018-12-27T07:55:04.769Z,3.60
2018-12-27T07:57:53.540Z,3.70
2018-12-27T08:00:41.625Z,3.90
2018-12-27T08:03:29.705Z,3.90
2018-12-27T08:06:17.739Z,4.00
2018-12-27T08:08:46.668Z,4.10
2018-12-27T08:11:34.777Z,4.00
2018-12-27T08:14:03.743Z,4.10
2018-12-27T08:16:51.796Z,4.10
2018-12-27T08:19:39.902Z,4.10
2018-12-27T08:22:28.022Z,4.10
2018-12-27T08:25:16.140Z,4.10
2018-12-27T08:28:04.183Z,4.20
2018-12-27T08:30:52.286Z,4.20
2018-12-27T08:33:40.324Z,4.20
2018-12-27T08:36:09.149Z,4.20
2018-12-27T08:38:50.058Z,4.20
2018-12-27T08:41:31.199Z,4.20
2018-12-27T08:46:54.344Z,4.20
2018-12-27T08:49:35.148Z,4.20
2018-12-27T08:52:15.698Z,4.20
2018-12-27T08:54:56.588Z,4.20
2018-12-27T08:57:37.353Z,4.20
2018-12-27T09:00:18.161Z,4.10
2018-12-27T09:02:58.957Z,4.10
2018-12-27T09:05:39.900Z,4.20
2018-12-27T09:08:20.944Z,4.20
2018-12-27T09:11:01.826Z,4.20
2018-12-27T09:13:42.736Z,4.10
2018-12-27T09:16:23.476Z,4.20
2018-12-27T09:18:52.582Z,4.20
2018-12-27T09:21:40.715Z,4.20
2018-12-27T09:24:28.824Z,4.20
2018-12-27T09:27:16.871Z,4.20
2018-12-27T09:30:05.236Z,4.20
2018-12-27T09:32:53.339Z,4.20
2018-12-27T09:35:41.430Z,4.20
2018-12-27T09:38:29.478Z,4.20
2018-12-27T09:41:17.586Z,4.20
2018-12-27T09:43:46.519Z,4.20
2018-12-27T09:46:15.419Z,4.30
2018-12-27T09:48:44.560Z,4.30
2018-12-27T09:51:13.612Z,4.30
2018-12-27T09:53:42.632Z,4.30
2018-12-27T09:56:11.691Z,4.40
2018-12-27T09:58:40.591Z,4.40
2018-12-27T10:01:09.567Z,4.30
2018-12-27T10:03:38.584Z,4.40
2018-12-27T10:06:07.695Z,4.40
2018-12-27T10:08:36.673Z,4.40
2018-12-27T10:11:05.839Z,4.40
2018-12-27T10:13:34.804Z,4.40
2018-12-27T10:16:03.769Z,4.40
2018-12-27T10:18:32.808Z,4.50
2018-12-27T10:21:01.883Z,4.50
2018-12-27T10:23:30.841Z,4.50
2018-12-27T10:26:00.004Z,4.50
2018-12-27T10:28:29.033Z,4.50
2018-12-27T10:30:59.857Z,4.50
2018-12-27T10:33:28.555Z,4.50
2018-12-27T10:35:57.715Z,4.60
2018-12-27T10:38:26.640Z,4.60
2018-12-27T10:40:55.634Z,4.60
2018-12-27T10:43:24.521Z,4.60
2018-12-27T10:45:53.631Z,4.70
2018-12-27T10:48:22.673Z,4.70
2018-12-27T10:50:51.655Z,4.70
2018-12-27T10:53:20.711Z,4.70
2018-12-27T10:55:49.799Z,4.70
2018-12-27T10:58:18.793Z,4.70
2018-12-27T11:00:47.948Z,4.70
2018-12-27T11:03:16.939Z,4.60
2018-12-27T11:05:48.781Z,4.70
2018-12-27T11:08:16.581Z,4.70
2018-12-27T11:10:45.605Z,4.70
2018-12-27T11:13:14.531Z,4.70
2018-12-27T11:15:43.478Z,4.80
2018-12-27T11:18:12.640Z,4.90
2018-12-27T11:20:41.733Z,4.90
2018-12-27T11:23:10.840Z,4.90
2018-12-27T11:25:39.675Z,5.00
2018-12-27T11:28:08.768Z,5.00
2018-12-27T11:30:37.849Z,4.90
2018-12-27T11:33:06.854Z,5.00
2018-12-27T11:35:35.858Z,5.00
2018-12-27T11:38:04.942Z,5.00
2018-12-27T11:40:33.921Z,5.00
2018-12-27T11:43:02.863Z,5.00
2018-12-27T11:45:31.899Z,5.10
2018-12-27T11:48:00.787Z,5.10
2018-12-27T11:50:29.804Z,5.10
2018-12-27T11:52:58.799Z,5.20
2018-12-27T11:55:27.809Z,5.10
2018-12-27T11:57:56.883Z,5.20
2018-12-27T12:00:26.086Z,5.20
2018-12-27T12:02:55.240Z,5.20
2018-12-27T12:05:24.279Z,5.10
2018-12-27T12:07:53.821Z,5.20
2018-12-27T12:10:22.856Z,5.10
2018-12-27T12:12:51.970Z,5.10
2018-12-27T12:15:20.979Z,5.10
2018-12-27T12:17:49.937Z,5.10
2018-12-27T12:20:18.889Z,5.00
2018-12-27T12:22:48.050Z,5.00
2018-12-27T12:25:17.209Z,5.00
2018-12-27T12:27:46.346Z,5.00
2018-12-27T12:30:15.450Z,5.00
2018-12-27T12:32:44.718Z,4.90
2018-12-27T12:35:13.810Z,4.90
2018-12-27T12:37:43.087Z,4.90
2018-12-27T12:40:12.207Z,4.90
2018-12-27T12:42:41.094Z,4.90
2018-12-27T12:45:10.168Z,4.90
2018-12-27T12:47:39.158Z,4.90
2018-12-27T12:50:08.999Z,4.90
2018-12-27T12:52:39.256Z,4.90
2018-12-27T12:55:08.435Z,4.90
2018-12-27T12:57:37.534Z,4.90
2018-12-27T13:00:09.304Z,5.00
2018-12-27T13:02:38.516Z,5.00
2018-12-27T13:05:07.612Z,5.00
2018-12-27T13:07:36.591Z,5.00
2018-12-27T13:10:05.917Z,5.00
2018-12-27T13:12:34.974Z,5.00
2018-12-27T13:15:04.192Z,5.00
2018-12-27T13:17:33.174Z,5.00
2018-12-27T13:20:02.163Z,4.90
2018-12-27T13:22:31.212Z,4.90
2018-12-27T13:25:00.233Z,5.00
2018-12-27T13:27:29.679Z,4.90
2018-12-27T13:29:58.624Z,5.00
2018-12-27T13:32:27.470Z,4.90
2018-12-27T13:34:56.362Z,5.00
2018-12-27T13:37:25.286Z,5.00
2018-12-27T13:39:54.470Z,5.00
2018-12-27T13:42:23.425Z,5.00
2018-12-27T13:44:52.517Z,5.00
2018-12-27T13:47:21.584Z,5.00
2018-12-27T13:49:50.593Z,5.00
2018-12-27T13:52:19.426Z,5.00
2018-12-27T13:54:48.598Z,5.00
2018-12-27T13:57:17.712Z,5.00
2018-12-27T13:59:46.883Z,5.00
2018-12-27T14:02:15.938Z,5.00
2018-12-27T14:04:44.953Z,5.00
2018-12-27T14:07:13.821Z,4.90
2018-12-27T14:09:42.869Z,4.90
2018-12-27T14:12:11.911Z,5.00
2018-12-27T14:14:41.019Z,4.90
2018-12-27T14:17:10.103Z,4.90
2018-12-27T14:19:39.201Z,4.90
2018-12-27T14:22:08.473Z,5.00
2018-12-27T14:24:37.607Z,4.90
2018-12-27T14:27:06.743Z,4.90
2018-12-27T14:29:35.981Z,5.00
2018-12-27T14:32:05.075Z,4.90
2018-12-27T14:34:34.083Z,4.90
2018-12-27T14:37:03.163Z,5.00
2018-12-27T14:39:32.284Z,4.90
2018-12-27T14:42:01.334Z,5.00
2018-12-27T14:44:30.263Z,5.00
2018-12-27T14:46:59.356Z,5.00
2018-12-27T14:49:28.315Z,5.00
2018-12-27T14:51:57.230Z,4.90
2018-12-27T14:54:26.205Z,4.90
2018-12-27T14:56:55.200Z,5.00
2018-12-27T14:59:24.202Z,4.90
2018-12-27T15:01:53.255Z,4.90
2018-12-27T15:04:22.173Z,4.90
2018-12-27T15:06:51.531Z,4.90
2018-12-27T15:09:20.773Z,4.90
2018-12-27T15:11:50.962Z,4.90
2018-12-27T15:14:19.959Z,5.00
2018-12-27T15:16:48.879Z,4.90
2018-12-27T15:19:17.793Z,5.00
2018-12-27T15:21:46.907Z,4.90
2018-12-27T15:24:15.916Z,5.00
2018-12-27T15:26:44.910Z,5.00
2018-12-27T15:29:14.129Z,5.00
2018-12-27T15:31:43.135Z,5.00
2018-12-27T15:34:11.947Z,5.00
2018-12-27T15:36:40.845Z,4.90
2018-12-27T15:39:09.719Z,4.90
2018-12-27T15:41:38.875Z,5.00
2018-12-27T15:44:07.803Z,5.00
2018-12-27T15:46:36.772Z,5.00
2018-12-27T15:49:06.099Z,5.00
2018-12-27T15:51:35.316Z,5.00
2018-12-27T15:54:04.575Z,5.00
2018-12-27T15:56:33.523Z,5.00
2018-12-27T15:59:02.489Z,5.00
2018-12-27T16:01:31.559Z,5.00
2018-12-27T16:04:00.559Z,5.00
2018-12-27T16:06:29.410Z,5.00
2018-12-27T16:08:58.502Z,5.00
2018-12-27T16:11:27.479Z,5.00
2018-12-27T16:13:56.516Z,5.00
2018-12-27T16:16:25.588Z,5.00
2018-12-27T16:18:54.498Z,5.00
2018-12-27T16:21:23.592Z,5.00
2018-12-27T16:23:52.596Z,5.00
2018-12-27T16:26:21.555Z,5.00
2018-12-27T16:28:50.468Z,5.10
2018-12-27T16:31:19.725Z,5.10
2018-12-27T16:33:48.869Z,5.00
2018-12-27T16:36:17.935Z,5.00
2018-12-27T16:38:47.014Z,5.10
2018-12-27T16:41:16.366Z,5.10
2018-12-27T16:43:45.344Z,5.10
2018-12-27T16:46:14.287Z,5.10
2018-12-27T16:48:43.284Z,5.10
2018-12-27T16:51:12.254Z,5.10
2018-12-27T16:53:41.536Z,5.10
2018-12-27T16:56:10.580Z,5.10
2018-12-27T16:58:39.573Z,5.10
2018-12-27T17:01:08.513Z,5.10
2018-12-27T17:03:37.657Z,5.10
2018-12-27T17:06:06.606Z,5.10
2018-12-27T17:08:35.580Z,5.10
2018-12-27T17:11:04.626Z,5.20
2018-12-27T17:13:33.661Z,5.10
2018-12-27T17:16:02.681Z,5.10
2018-12-27T17:18:31.672Z,5.10
2018-12-27T17:21:00.803Z,5.10
2018-12-27T17:23:29.837Z,5.10
2018-12-27T17:25:59.061Z,5.10
2018-12-27T17:28:28.282Z,5.10
2018-12-27T17:30:57.327Z,5.10
2018-12-27T17:33:26.447Z,5.10
2018-12-27T17:35:55.927Z,5.10
2018-12-27T17:38:24.823Z,5.10
2018-12-27T17:40:53.837Z,5.10
2018-12-27T17:43:22.872Z,5.10
2018-12-27T17:45:51.866Z,5.10
2018-12-27T17:48:20.857Z,5.10
2018-12-27T17:50:49.790Z,5.20
2018-12-27T17:53:18.757Z,5.20
2018-12-27T17:55:47.697Z,5.20
2018-12-27T17:58:18.004Z,5.20
2018-12-27T18:00:46.845Z,5.20
2018-12-27T18:03:15.900Z,5.20
2018-12-27T18:05:45.855Z,5.20
2018-12-27T18:08:14.693Z,5.20
2018-12-27T18:10:43.651Z,5.20
2018-12-27T18:13:12.606Z,5.20
2018-12-27T18:15:41.679Z,5.20
2018-12-27T18:18:10.771Z,5.20
2018-12-27T18:20:40.929Z,5.20
2018-12-27T18:23:10.291Z,5.20
2018-12-27T18:25:39.292Z,5.20
2018-12-27T18:28:08.292Z,5.20
2018-12-27T18:30:37.212Z,5.20
2018-12-27T18:33:06.162Z,5.20
2018-12-27T18:35:35.159Z,5.20
2018-12-27T18:38:04.183Z,5.20
2018-12-27T18:40:33.213Z,5.20
2018-12-27T18:43:02.180Z,5.30
2018-12-27T18:45:31.154Z,5.30
2018-12-27T18:48:00.168Z,5.30
2018-12-27T18:50:29.224Z,5.20
2018-12-27T18:52:58.312Z,5.30
2018-12-27T18:55:27.828Z,5.30
2018-12-27T18:57:56.740Z,5.30
2018-12-27T19:00:25.816Z,5.30
2018-12-27T19:02:56.045Z,5.30
2018-12-27T19:05:25.194Z,5.30
2018-12-27T19:07:54.452Z,5.30
2018-12-27T19:10:23.550Z,5.30
2018-12-27T19:13:08.925Z,5.20
2018-12-27T19:16:02.502Z,5.30
2018-12-27T19:18:39.988Z,5.30
2018-12-27T19:21:25.157Z,5.30
2018-12-27T19:23:54.145Z,5.30
2018-12-27T19:26:23.291Z,5.30
2018-12-27T19:28:52.284Z,5.20
2018-12-27T19:31:21.314Z,5.30
2018-12-27T19:33:50.436Z,5.30
2018-12-27T19:36:19.580Z,5.30
2018-12-27T19:38:48.726Z,5.30
2018-12-27T19:41:17.758Z,5.30
2018-12-27T19:43:47.328Z,5.30
2018-12-27T19:46:16.369Z,5.30
2018-12-27T19:48:45.419Z,5.30
2018-12-27T19:51:14.463Z,5.30
2018-12-27T19:53:43.500Z,5.30
2018-12-27T19:56:12.597Z,5.30
2018-12-27T19:58:41.892Z,5.30
2018-12-27T20:01:10.956Z,5.30
2018-12-27T20:03:39.986Z,5.30
2018-12-27T20:06:09.179Z,5.30
2018-12-27T20:08:38.438Z,5.30
2018-12-27T20:11:07.623Z,5.20
2018-12-27T20:13:36.640Z,5.20
2018-12-27T20:16:05.798Z,5.20
2018-12-27T20:18:34.750Z,5.20
2018-12-27T20:21:03.942Z,5.20
2018-12-27T20:23:33.241Z,5.20
2018-12-27T20:26:02.412Z,5.20
2018-12-27T20:28:32.736Z,5.20
2018-12-27T20:31:01.962Z,5.20
2018-12-27T20:33:31.039Z,5.20
2018-12-27T20:35:59.967Z,5.20
2018-12-27T20:38:29.050Z,5.10
2018-12-27T20:40:58.121Z,5.10
2018-12-27T20:43:27.722Z,5.10
2018-12-27T20:45:56.750Z,5.10
2018-12-27T20:48:25.713Z,5.10
2018-12-27T20:50:54.830Z,5.10
2018-12-27T20:53:23.991Z,5.10
2018-12-27T20:55:53.083Z,5.10
2018-12-27T20:58:22.318Z,5.00
2018-12-27T21:00:51.379Z,5.10
2018-12-27T21:03:20.505Z,5.10
2018-12-27T21:05:49.915Z,5.20
2018-12-27T21:08:19.663Z,5.10
2018-12-27T21:10:49.570Z,5.10
2018-12-27T21:13:18.632Z,5.10
2018-12-27T21:15:47.704Z,5.10
2018-12-27T21:18:16.879Z,5.10
2018-12-27T21:20:45.871Z,5.10
2018-12-27T21:23:15.132Z,5.10
2018-12-27T21:25:44.314Z,5.10
2018-12-27T21:28:13.445Z,5.10
2018-12-27T21:30:42.707Z,5.10
2018-12-27T21:33:11.656Z,5.10
2018-12-27T21:35:40.645Z,5.10
2018-12-27T21:38:09.785Z,5.00
2018-12-27T21:40:39.293Z,5.10
2018-12-27T21:43:08.421Z,5.00
2018-12-27T21:45:37.548Z,5.00
2018-12-27T21:48:06.884Z,5.10
2018-12-27T21:50:55.506Z,5.10
2018-12-27T21:56:01.958Z,5.00
2018-12-27T21:58:31.600Z,5.00
2018-12-27T22:04:06.012Z,5.00
2018-12-27T22:06:54.243Z,5.00
2018-12-27T22:09:44.545Z,4.90
2018-12-27T22:12:33.397Z,4.90
2018-12-27T22:15:22.013Z,4.90
2018-12-27T22:24:15.018Z,4.90
2018-12-27T22:27:03.560Z,4.90
2018-12-27T22:32:54.839Z,4.90
2018-12-27T22:35:45.193Z,4.90
2018-12-27T22:38:35.756Z,4.90
2018-12-27T22:41:04.935Z,4.90
2018-12-27T22:43:34.288Z,4.90
2018-12-27T22:46:24.288Z,4.90
2018-12-27T22:49:12.768Z,4.90
2018-12-27T22:52:01.583Z,4.90
2018-12-27T22:54:55.509Z,4.90
2018-12-27T22:57:22.088Z,4.90
2018-12-27T23:03:03.276Z,4.90
2018-12-27T23:05:55.371Z,4.90
2018-12-27T23:08:44.078Z,4.90
2018-12-27T23:14:14.495Z,5.00
2018-12-27T23:16:55.760Z,5.00
2018-12-27T23:19:36.884Z,5.00
2018-12-27T23:22:21.493Z,5.00
2018-12-27T23:25:02.662Z,5.00
2018-12-27T23:27:44.247Z,5.00
2018-12-27T23:30:13.669Z,5.00
2018-12-27T23:33:02.160Z,4.90
2018-12-27T23:35:50.691Z,5.00
2018-12-27T23:38:39.414Z,5.00
2018-12-27T23:41:29.146Z,5.00
2018-12-27T23:44:21.142Z,5.00
2018-12-27T23:47:09.768Z,5.00
2018-12-27T23:52:54.000Z,5.00
2018-12-27T23:55:42.652Z,5.00
2018-12-27T23:58:33.207Z,4.90
